createdAt,value
2018-08-19T00:02:22.930Z,16.88
2018-08-19T00:05:07.125Z,16.85
2018-08-19T00:07:36.619Z,16.78
2018-08-19T00:10:07.245Z,16.80
2018-08-19T00:12:44.622Z,16.73
2018-08-19T00:15:14.569Z,16.64
2018-08-19T00:17:44.329Z,16.63
2018-08-19T00:20:14.557Z,16.53
2018-08-19T00:22:44.139Z,16.51
2018-08-19T00:25:29.218Z,16.51
2018-08-19T00:27:58.739Z,16.48
2018-08-19T00:30:29.850Z,16.46
2018-08-19T00:32:59.348Z,16.44
2018-08-19T00:35:29.550Z,16.38
2018-08-19T00:37:59.461Z,16.34
2018-08-19T00:40:28.958Z,16.41
2018-08-19T00:42:58.777Z,16.42
2018-08-19T00:45:28.598Z,16.40
2018-08-19T00:47:58.023Z,16.37
2018-08-19T00:50:27.603Z,16.33
2018-08-19T00:52:57.099Z,16.26
2018-08-19T00:55:26.736Z,16.20
2018-08-19T00:57:57.483Z,16.12
2018-08-19T01:00:27.808Z,16.09
2018-08-19T01:02:57.312Z,16.08
2018-08-19T01:05:26.792Z,16.00
2018-08-19T01:07:56.261Z,15.99
2018-08-19T01:10:25.753Z,16.02
2018-08-19T01:12:55.259Z,15.99
2018-08-19T01:15:24.702Z,15.90
2018-08-19T01:17:54.233Z,15.86
2018-08-19T01:20:23.653Z,15.81
2018-08-19T01:22:53.247Z,15.77
2018-08-19T01:25:22.708Z,15.76
2018-08-19T01:27:53.164Z,15.70
2018-08-19T01:30:26.428Z,15.71
2018-08-19T01:32:55.813Z,15.73
2018-08-19T01:35:30.372Z,15.69
2018-08-19T01:38:00.000Z,15.66
2018-08-19T01:40:29.693Z,15.65
2018-08-19T01:42:59.083Z,15.60
2018-08-19T01:45:28.490Z,15.60
2018-08-19T01:47:57.860Z,15.60
2018-08-19T01:50:27.340Z,15.59
2018-08-19T01:52:56.777Z,15.55
2018-08-19T01:55:26.283Z,15.51
2018-08-19T01:57:56.854Z,15.50
2018-08-19T02:00:26.305Z,15.48
2018-08-19T02:03:01.924Z,15.50
2018-08-19T02:05:31.376Z,15.54
2018-08-19T02:08:02.137Z,15.53
2018-08-19T02:10:33.185Z,15.49
2018-08-19T02:13:02.969Z,15.50
2018-08-19T02:15:33.031Z,15.45
2018-08-19T02:18:04.670Z,15.46
2018-08-19T02:20:38.702Z,15.38
2018-08-19T02:23:09.770Z,15.25
2018-08-19T02:25:41.532Z,15.19
2018-08-19T02:28:11.773Z,15.18
2018-08-19T02:30:52.167Z,15.16
2018-08-19T02:33:23.714Z,15.13
2018-08-19T02:35:58.206Z,15.06
2018-08-19T02:38:27.643Z,14.99
2018-08-19T02:40:57.073Z,14.99
2018-08-19T02:43:26.480Z,15.07
2018-08-19T02:45:56.013Z,15.08
2018-08-19T02:48:43.483Z,15.07
2018-08-19T02:51:14.385Z,15.02
2018-08-19T02:53:45.101Z,14.99
2018-08-19T02:56:15.217Z,14.97
2018-08-19T02:58:45.586Z,14.94
2018-08-19T03:01:16.327Z,14.97
2018-08-19T03:03:45.757Z,14.95
2018-08-19T03:06:15.212Z,14.96
2018-08-19T03:08:49.739Z,14.94
2018-08-19T03:11:20.990Z,14.97
2018-08-19T03:13:50.417Z,14.94
2018-08-19T03:16:19.843Z,14.93
2018-08-19T03:18:51.851Z,14.91
2018-08-19T03:21:22.336Z,14.83
2018-08-19T03:23:53.160Z,14.76
2018-08-19T03:26:22.653Z,14.69
2018-08-19T03:28:52.109Z,14.66
2018-08-19T03:31:21.505Z,14.69
2018-08-19T03:33:50.891Z,14.67
2018-08-19T03:36:20.338Z,14.67
2018-08-19T03:38:49.796Z,14.64
2018-08-19T03:41:19.281Z,14.67
2018-08-19T03:43:53.506Z,14.60
2018-08-19T03:46:23.026Z,14.61
2018-08-19T03:48:52.484Z,14.61
2018-08-19T03:51:21.923Z,14.64
2018-08-19T03:53:51.346Z,14.59
2018-08-19T03:56:26.772Z,14.63
2018-08-19T03:59:00.087Z,14.57
2018-08-19T04:01:44.664Z,14.49
2018-08-19T04:04:16.851Z,14.44
2018-08-19T04:06:46.326Z,14.44
2018-08-19T04:09:15.755Z,14.45
2018-08-19T04:11:50.670Z,14.47
2018-08-19T04:14:28.830Z,14.46
2018-08-19T04:17:00.747Z,14.44
2018-08-19T04:19:30.645Z,14.40
2018-08-19T04:22:02.986Z,14.40
2018-08-19T04:24:32.942Z,14.35
2018-08-19T04:27:11.267Z,14.27
2018-08-19T04:29:41.001Z,14.18
2018-08-19T04:32:19.524Z,14.15
2018-08-19T04:34:48.903Z,14.17
2018-08-19T04:37:18.229Z,14.16
2018-08-19T04:39:47.663Z,14.15
2018-08-19T04:42:17.118Z,14.12
2018-08-19T04:44:46.492Z,14.09
2018-08-19T04:47:29.526Z,14.09
2018-08-19T04:49:58.966Z,14.03
2018-08-19T04:52:28.400Z,14.05
2018-08-19T04:54:57.877Z,14.05
2018-08-19T04:57:27.291Z,14.08
2018-08-19T04:59:56.772Z,14.06
2018-08-19T05:02:26.297Z,14.00
2018-08-19T05:04:55.715Z,13.95
2018-08-19T05:07:25.184Z,13.92
2018-08-19T05:09:54.594Z,13.86
2018-08-19T05:12:23.985Z,13.88
2018-08-19T05:14:53.391Z,13.91
2018-08-19T05:17:22.808Z,13.90
2018-08-19T05:19:58.128Z,13.91
2018-08-19T05:22:27.613Z,13.87
2018-08-19T05:24:56.983Z,13.87
2018-08-19T05:27:26.386Z,13.82
2018-08-19T05:29:55.804Z,13.80
2018-08-19T05:32:25.195Z,13.89
2018-08-19T05:34:54.657Z,13.96
2018-08-19T05:37:24.047Z,14.00
2018-08-19T05:39:58.058Z,14.01
2018-08-19T05:42:27.579Z,14.01
2018-08-19T05:44:56.970Z,14.03
2018-08-19T05:47:26.423Z,14.08
2018-08-19T05:49:55.807Z,14.14
2018-08-19T05:52:25.249Z,14.17
2018-08-19T05:54:56.106Z,14.21
2018-08-19T05:57:25.568Z,14.26
2018-08-19T05:59:55.305Z,14.30
2018-08-19T06:02:32.950Z,14.38
2018-08-19T06:05:03.767Z,14.44
2018-08-19T06:07:33.307Z,14.49
2018-08-19T06:10:02.708Z,14.56
2018-08-19T06:12:32.158Z,14.57
2018-08-19T06:15:02.296Z,14.61
2018-08-19T06:17:31.799Z,14.65
2018-08-19T06:20:01.292Z,14.70
2018-08-19T06:22:38.998Z,14.77
2018-08-19T06:25:09.002Z,14.82
2018-08-19T06:27:44.653Z,14.89
2018-08-19T06:30:14.944Z,14.93
2018-08-19T06:32:44.503Z,15.00
2018-08-19T06:35:14.246Z,15.04
2018-08-19T06:37:43.686Z,15.08
2018-08-19T06:40:15.531Z,15.13
2018-08-19T06:42:45.240Z,15.19
2018-08-19T06:45:15.048Z,15.24
2018-08-19T06:47:44.560Z,15.30
2018-08-19T06:50:27.660Z,15.36
2018-08-19T06:52:59.345Z,15.44
2018-08-19T06:55:31.069Z,15.49
2018-08-19T06:58:03.002Z,15.53
2018-08-19T07:00:34.274Z,15.60
2018-08-19T07:03:07.052Z,15.67
2018-08-19T07:05:38.421Z,15.72
2018-08-19T07:08:09.008Z,15.78
2018-08-19T07:10:39.416Z,15.85
2018-08-19T07:13:12.560Z,15.92
2018-08-19T07:15:43.174Z,15.97
2018-08-19T07:18:14.456Z,16.06
2018-08-19T07:20:44.709Z,16.12
2018-08-19T07:23:14.300Z,16.19
2018-08-19T07:25:45.015Z,16.27
2018-08-19T07:28:16.106Z,16.35
2018-08-19T07:30:45.598Z,16.41
2018-08-19T07:33:15.309Z,16.49
2018-08-19T07:35:44.803Z,16.56
2018-08-19T07:38:14.269Z,16.64
2018-08-19T07:40:43.670Z,16.75
2018-08-19T07:43:13.124Z,16.82
2018-08-19T07:45:42.547Z,16.89
2018-08-19T07:48:12.048Z,16.97
2018-08-19T07:50:41.538Z,17.04
2018-08-19T07:53:10.978Z,17.11
2018-08-19T07:55:40.418Z,17.19
2018-08-19T07:58:09.880Z,17.27
2018-08-19T08:00:40.462Z,17.35
2018-08-19T08:03:10.412Z,17.46
2018-08-19T08:05:54.261Z,17.53
2018-08-19T08:08:23.788Z,17.59
2018-08-19T08:10:53.380Z,17.70
2018-08-19T08:13:22.927Z,17.80
2018-08-19T08:15:53.271Z,17.89
2018-08-19T08:18:22.733Z,17.96
2018-08-19T08:21:00.847Z,18.01
2018-08-19T08:23:30.312Z,18.09
2018-08-19T08:25:59.757Z,18.18
2018-08-19T08:28:29.215Z,18.23
2018-08-19T08:30:58.638Z,18.30
2018-08-19T08:33:28.129Z,18.35
2018-08-19T08:35:58.454Z,18.42
2018-08-19T08:38:27.895Z,18.51
2018-08-19T08:40:57.381Z,18.57
2018-08-19T08:43:26.811Z,18.66
2018-08-19T08:45:57.329Z,18.74
2018-08-19T08:48:26.990Z,18.79
2018-08-19T08:50:56.714Z,18.86
2018-08-19T08:53:31.103Z,18.93
2018-08-19T08:56:00.559Z,18.99
2018-08-19T08:58:30.083Z,19.07
2018-08-19T09:00:59.742Z,19.28
2018-08-19T09:03:29.386Z,19.34
2018-08-19T09:05:58.998Z,19.43
2018-08-19T09:08:28.964Z,19.61
2018-08-19T09:10:59.964Z,19.65
2018-08-19T09:13:29.395Z,19.70
2018-08-19T09:15:58.832Z,19.78
2018-08-19T09:18:28.292Z,19.83
2018-08-19T09:20:57.795Z,19.90
2018-08-19T09:23:27.402Z,19.96
2018-08-19T09:25:56.843Z,20.00
2018-08-19T09:28:26.281Z,20.04
2018-08-19T09:30:55.912Z,20.12
2018-08-19T09:33:25.523Z,20.17
2018-08-19T09:35:56.415Z,20.24
2018-08-19T09:38:26.684Z,20.36
2018-08-19T09:40:57.333Z,20.45
2018-08-19T09:43:28.596Z,20.52
2018-08-19T09:45:59.028Z,20.58
2018-08-19T09:48:28.414Z,20.66
2018-08-19T09:51:01.929Z,20.72
2018-08-19T09:53:31.416Z,20.86
2018-08-19T09:56:05.849Z,21.07
2018-08-19T09:58:35.327Z,21.16
2018-08-19T10:01:09.984Z,21.21
2018-08-19T10:03:39.619Z,21.25
2018-08-19T10:06:09.193Z,21.28
2018-08-19T10:08:38.613Z,21.34
2018-08-19T10:11:09.548Z,21.37
2018-08-19T10:13:39.052Z,21.46
2018-08-19T10:16:08.525Z,21.46
2018-08-19T10:18:38.029Z,21.48
2018-08-19T10:21:11.630Z,21.52
2018-08-19T10:23:41.083Z,21.55
2018-08-19T10:26:10.576Z,21.66
2018-08-19T10:28:41.301Z,21.70
2018-08-19T10:31:18.096Z,21.71
2018-08-19T10:33:50.822Z,21.75
2018-08-19T10:36:20.343Z,21.75
2018-08-19T10:38:49.888Z,21.80
2018-08-19T10:41:20.093Z,21.82
2018-08-19T10:43:49.547Z,21.87
2018-08-19T10:46:19.124Z,22.00
2018-08-19T10:48:48.552Z,22.08
2018-08-19T10:51:18.045Z,22.13
2018-08-19T10:53:47.512Z,22.41
2018-08-19T10:56:16.981Z,22.44
2018-08-19T10:58:55.363Z,22.46
2018-08-19T11:01:24.846Z,22.56
2018-08-19T11:03:54.433Z,22.56
2018-08-19T11:06:24.416Z,22.67
2018-08-19T11:08:55.971Z,22.66
2018-08-19T11:11:27.209Z,22.73
2018-08-19T11:13:56.671Z,22.92
2018-08-19T11:16:26.133Z,22.95
2018-08-19T11:18:55.929Z,22.99
2018-08-19T11:21:30.601Z,23.01
2018-08-19T11:24:00.178Z,23.04
2018-08-19T11:26:29.671Z,23.06
2018-08-19T11:28:59.923Z,23.12
2018-08-19T11:31:33.604Z,23.22
2018-08-19T11:34:04.595Z,23.35
2018-08-19T11:36:39.451Z,23.41
2018-08-19T11:39:14.454Z,23.50
2018-08-19T11:41:43.983Z,23.57
2018-08-19T11:44:16.229Z,23.61
2018-08-19T11:46:45.875Z,23.66
2018-08-19T11:49:17.725Z,23.72
2018-08-19T11:52:00.276Z,23.74
2018-08-19T11:54:31.039Z,23.83
2018-08-19T11:57:06.810Z,23.89
2018-08-19T11:59:38.262Z,23.99
2018-08-19T12:02:13.380Z,23.97
2018-08-19T12:04:42.847Z,23.98
2018-08-19T12:07:12.487Z,24.09
2018-08-19T12:09:47.273Z,24.12
2018-08-19T12:12:17.196Z,24.16
2018-08-19T12:14:46.691Z,24.24
2018-08-19T12:17:17.076Z,24.28
2018-08-19T12:19:46.479Z,24.38
2018-08-19T12:22:15.951Z,24.42
2018-08-19T12:24:47.440Z,24.46
2018-08-19T12:27:19.154Z,24.52
2018-08-19T12:29:49.067Z,24.55
2018-08-19T12:32:27.053Z,24.57
2018-08-19T12:34:57.913Z,24.63
2018-08-19T12:37:28.803Z,24.79
2018-08-19T12:39:58.759Z,24.88
2018-08-19T12:42:29.527Z,24.92
2018-08-19T12:45:04.203Z,25.02
2018-08-19T12:47:33.652Z,25.04
2018-08-19T12:50:19.273Z,25.11
2018-08-19T12:52:50.027Z,25.26
2018-08-19T12:55:19.574Z,25.22
2018-08-19T12:57:53.322Z,25.25
2018-08-19T13:00:26.750Z,25.40
2018-08-19T13:02:56.458Z,25.43
2018-08-19T13:05:26.039Z,25.47
2018-08-19T13:07:55.506Z,25.52
2018-08-19T13:10:25.288Z,25.60
2018-08-19T13:12:57.124Z,25.73
2018-08-19T13:15:29.411Z,25.73
2018-08-19T13:17:59.069Z,25.75
2018-08-19T13:20:28.529Z,25.73
2018-08-19T13:23:03.993Z,25.71
2018-08-19T13:25:33.860Z,25.73
2018-08-19T13:28:03.325Z,25.74
2018-08-19T13:30:32.829Z,25.74
2018-08-19T13:33:02.334Z,25.80
2018-08-19T13:35:31.764Z,25.82
2018-08-19T13:38:01.389Z,25.83
2018-08-19T13:40:31.548Z,25.93
2018-08-19T13:43:01.041Z,25.94
2018-08-19T13:45:30.522Z,26.06
2018-08-19T13:48:00.034Z,26.16
2018-08-19T13:50:29.487Z,26.26
2018-08-19T13:52:58.998Z,26.38
2018-08-19T13:55:31.216Z,26.52
2018-08-19T13:58:00.643Z,26.72
2018-08-19T14:00:33.270Z,26.82
2018-08-19T14:03:02.750Z,26.97
2018-08-19T14:05:32.239Z,27.06
2018-08-19T14:08:02.797Z,27.14
2018-08-19T14:10:32.305Z,27.23
2018-08-19T14:13:01.769Z,27.34
2018-08-19T14:15:31.253Z,27.43
2018-08-19T14:18:00.825Z,27.53
2018-08-19T14:20:30.336Z,27.58
2018-08-19T14:22:59.901Z,27.70
2018-08-19T14:25:29.423Z,27.77
2018-08-19T14:28:00.973Z,27.87
2018-08-19T14:30:30.555Z,27.96
2018-08-19T14:32:59.950Z,28.02
2018-08-19T14:35:30.018Z,28.10
2018-08-19T14:37:59.495Z,28.16
2018-08-19T14:40:29.760Z,28.25
2018-08-19T14:42:59.065Z,28.33
2018-08-19T14:45:28.500Z,28.43
2018-08-19T14:47:58.023Z,28.54
2018-08-19T14:50:27.534Z,28.59
2018-08-19T14:52:57.025Z,28.66
2018-08-19T14:55:26.486Z,28.68
2018-08-19T14:57:55.912Z,28.74
2018-08-19T15:00:25.327Z,28.81
2018-08-19T15:02:54.781Z,28.84
2018-08-19T15:05:24.333Z,28.92
2018-08-19T15:07:53.885Z,29.02
2018-08-19T15:10:25.569Z,29.09
2018-08-19T15:12:55.112Z,29.18
2018-08-19T15:15:24.736Z,29.22
2018-08-19T15:18:00.826Z,29.25
2018-08-19T15:20:34.636Z,29.36
2018-08-19T15:23:17.293Z,29.40
2018-08-19T15:25:47.046Z,29.46
2018-08-19T15:28:17.446Z,29.47
2018-08-19T15:30:47.006Z,29.44
2018-08-19T15:33:16.908Z,29.43
2018-08-19T15:35:46.332Z,29.45
2018-08-19T15:38:15.861Z,29.54
2018-08-19T15:40:47.899Z,29.57
2018-08-19T15:43:17.385Z,29.62
2018-08-19T15:45:46.899Z,29.64
2018-08-19T15:48:16.364Z,29.72
2018-08-19T15:50:45.909Z,29.66
2018-08-19T15:55:57.238Z,29.65
2018-08-19T15:58:28.293Z,29.65
2018-08-19T16:00:57.804Z,29.62
2018-08-19T16:03:29.309Z,29.59
2018-08-19T16:05:58.775Z,29.51
2018-08-19T16:08:28.311Z,29.50
2018-08-19T16:10:57.850Z,29.43
2018-08-19T16:13:27.268Z,29.29
2018-08-19T16:15:56.821Z,29.19
2018-08-19T16:18:26.349Z,29.12
2018-08-19T16:21:03.725Z,29.10
2018-08-19T16:23:33.380Z,29.01
2018-08-19T16:26:02.805Z,28.87
2018-08-19T16:28:32.287Z,28.85
2018-08-19T16:31:01.864Z,28.79
2018-08-19T16:33:31.360Z,28.69
2018-08-19T16:36:00.889Z,28.62
2018-08-19T16:38:31.053Z,28.56
2018-08-19T16:41:00.769Z,28.53
2018-08-19T16:43:30.217Z,28.46
2018-08-19T16:45:59.769Z,28.41
2018-08-19T16:48:29.303Z,28.40
2018-08-19T16:50:58.795Z,28.35
2018-08-19T16:53:28.329Z,28.32
2018-08-19T16:55:57.869Z,28.28
2018-08-19T16:58:27.383Z,28.26
2018-08-19T17:00:56.830Z,28.15
2018-08-19T17:03:34.242Z,28.13
2018-08-19T17:06:04.473Z,28.09
2018-08-19T17:08:33.970Z,28.04
2018-08-19T17:11:03.508Z,28.00
2018-08-19T17:13:33.318Z,27.92
2018-08-19T17:16:02.952Z,27.81
2018-08-19T17:18:32.583Z,27.74
2018-08-19T17:21:02.052Z,27.66
2018-08-19T17:23:31.712Z,27.62
2018-08-19T17:26:10.873Z,27.57
2018-08-19T17:28:40.335Z,27.49
2018-08-19T17:31:09.778Z,27.41
2018-08-19T17:33:39.254Z,27.27
2018-08-19T17:36:08.739Z,27.14
2018-08-19T17:38:38.219Z,27.04
2018-08-19T17:41:07.663Z,26.94
2018-08-19T17:43:42.435Z,26.86
2018-08-19T17:46:15.428Z,26.70
2018-08-19T17:48:45.531Z,26.61
2018-08-19T17:51:32.141Z,26.53
2018-08-19T17:54:01.721Z,26.38
2018-08-19T17:56:31.294Z,26.28
2018-08-19T17:59:00.936Z,26.21
2018-08-19T18:01:30.412Z,26.15
2018-08-19T18:04:00.115Z,26.05
2018-08-19T18:06:29.728Z,25.94
2018-08-19T18:08:59.170Z,25.84
2018-08-19T18:11:29.268Z,25.76
2018-08-19T18:13:58.796Z,25.65
2018-08-19T18:16:30.246Z,25.57
2018-08-19T18:19:00.986Z,25.50
2018-08-19T18:21:32.721Z,25.36
2018-08-19T18:24:02.210Z,25.26
2018-08-19T18:26:31.662Z,25.19
2018-08-19T18:29:01.118Z,25.13
2018-08-19T18:31:30.577Z,25.00
2018-08-19T18:34:44.169Z,24.94
2018-08-19T18:37:42.910Z,24.90
2018-08-19T18:40:23.759Z,24.82
2018-08-19T18:43:01.593Z,24.71
2018-08-19T18:45:35.073Z,24.67
2018-08-19T18:48:13.297Z,24.62
2018-08-19T18:51:06.262Z,24.48
2018-08-19T18:53:54.501Z,24.44
2018-08-19T18:56:51.246Z,24.31
2018-08-19T18:59:33.243Z,24.23
2018-08-19T19:02:08.888Z,24.18
2018-08-19T19:05:01.349Z,24.12
2018-08-19T19:07:43.025Z,24.04
2018-08-19T19:10:40.684Z,23.95
2018-08-19T19:13:19.621Z,23.82
2018-08-19T19:16:02.020Z,23.70
2018-08-19T19:18:39.211Z,23.66
2018-08-19T19:21:40.315Z,23.59
2018-08-19T19:24:49.493Z,23.51
2018-08-19T19:27:41.731Z,23.38
2018-08-19T19:30:23.631Z,23.31
2018-08-19T19:33:09.727Z,23.20
2018-08-19T19:35:41.259Z,23.06
2018-08-19T19:38:14.882Z,22.99
2018-08-19T19:40:47.969Z,22.95
2018-08-19T19:43:22.195Z,22.91
2018-08-19T19:45:55.282Z,22.87
2018-08-19T19:48:29.393Z,22.84
2018-08-19T19:50:59.510Z,22.81
2018-08-19T19:53:32.185Z,22.79
2018-08-19T19:56:10.012Z,22.68
2018-08-19T19:58:44.483Z,22.61
2018-08-19T20:01:14.479Z,22.54
2018-08-19T20:03:55.870Z,22.44
2018-08-19T20:06:28.189Z,22.36
2018-08-19T20:09:03.204Z,22.35
2018-08-19T20:11:32.960Z,22.30
2018-08-19T20:14:03.605Z,22.22
2018-08-19T20:16:35.539Z,22.20
2018-08-19T20:19:09.840Z,22.05
2018-08-19T20:21:41.486Z,21.96
2018-08-19T20:24:14.606Z,21.88
2018-08-19T20:26:46.857Z,21.85
2018-08-19T20:29:21.651Z,21.81
2018-08-19T20:31:55.717Z,21.78
2018-08-19T20:34:27.133Z,21.75
2018-08-19T20:36:58.613Z,21.73
2018-08-19T20:39:30.574Z,21.61
2018-08-19T20:42:03.916Z,21.56
2018-08-19T20:44:33.643Z,21.50
2018-08-19T20:47:03.242Z,21.46
2018-08-19T20:49:32.702Z,21.42
2018-08-19T20:52:02.244Z,21.35
2018-08-19T20:54:31.956Z,21.35
2018-08-19T20:57:01.381Z,21.31
2018-08-19T20:59:36.168Z,21.26
2018-08-19T21:02:09.007Z,21.16
2018-08-19T21:04:38.644Z,21.11
2018-08-19T21:07:08.166Z,21.15
2018-08-19T21:09:37.765Z,21.05
2018-08-19T21:12:07.291Z,21.02
2018-08-19T21:14:36.654Z,20.97
2018-08-19T21:17:06.735Z,20.89
2018-08-19T21:19:37.193Z,20.79
2018-08-19T21:22:06.633Z,20.73
2018-08-19T21:24:36.131Z,20.74
2018-08-19T21:27:05.596Z,20.78
2018-08-19T21:29:35.024Z,20.72
2018-08-19T21:32:04.541Z,20.62
2018-08-19T21:34:33.935Z,20.57
2018-08-19T21:37:03.413Z,20.57
2018-08-19T21:39:32.818Z,20.55
2018-08-19T21:42:02.317Z,20.49
2018-08-19T21:44:31.766Z,20.44
2018-08-19T21:47:01.190Z,20.35
2018-08-19T21:49:30.625Z,20.36
2018-08-19T21:52:00.047Z,20.31
2018-08-19T21:54:29.578Z,20.32
2018-08-19T21:56:59.002Z,20.31
2018-08-19T21:59:28.473Z,20.23
2018-08-19T22:01:58.934Z,20.22
2018-08-19T22:04:28.954Z,20.15
2018-08-19T22:06:58.490Z,20.13
2018-08-19T22:09:34.955Z,20.08
2018-08-19T22:12:05.137Z,20.01
2018-08-19T22:14:34.673Z,19.98
2018-08-19T22:17:07.083Z,19.96
2018-08-19T22:19:36.598Z,19.88
2018-08-19T22:22:06.096Z,19.86
2018-08-19T22:24:35.594Z,19.94
2018-08-19T22:27:14.071Z,19.85
2018-08-19T22:29:43.431Z,19.78
2018-08-19T22:32:12.848Z,19.77
2018-08-19T22:34:42.243Z,19.70
2018-08-19T22:37:11.657Z,19.70
2018-08-19T22:39:41.049Z,19.69
2018-08-19T22:42:10.475Z,19.68
2018-08-19T22:44:39.891Z,19.61
2018-08-19T22:47:09.351Z,19.49
2018-08-19T22:49:38.766Z,19.47
2018-08-19T22:52:21.681Z,19.36
2018-08-19T22:54:54.802Z,19.36
2018-08-19T22:57:24.260Z,19.29
2018-08-19T22:59:53.700Z,19.26
2018-08-19T23:02:23.592Z,19.30
2018-08-19T23:04:53.081Z,19.32
2018-08-19T23:07:22.518Z,19.29
2018-08-19T23:09:51.923Z,19.29
2018-08-19T23:12:21.354Z,19.25
2018-08-19T23:15:07.497Z,19.21
2018-08-19T23:17:36.878Z,19.16
2018-08-19T23:20:06.388Z,19.15
2018-08-19T23:22:35.837Z,19.11
2018-08-19T23:25:05.704Z,19.04
2018-08-19T23:27:35.142Z,19.00
2018-08-19T23:30:04.843Z,18.98
2018-08-19T23:32:34.210Z,18.95
2018-08-19T23:35:03.654Z,18.89
2018-08-19T23:37:33.069Z,18.82
2018-08-19T23:40:02.445Z,18.77
2018-08-19T23:42:31.818Z,18.76
2018-08-19T23:45:01.260Z,18.71
2018-08-19T23:47:30.676Z,18.67
2018-08-19T23:50:00.096Z,18.66
2018-08-19T23:52:29.483Z,18.62
2018-08-19T23:54:58.902Z,18.74
2018-08-19T23:57:28.295Z,18.68
2018-08-19T23:59:57.770Z,18.63
